Huvudsida
METAR-TAF:

METAR-TAF

Flygplatser :

Ørsta-Volda flygplats. Hovden

Ørsta-Volda, Norge

latitud: 62-11N, longitud: 006-04E, höjd: 7 m

Aktuellt väderrapport

Denna rapport gjordes för 28 minuter sedan, klockan 14:20 UTC
Vind 4 kt varierande vindriktning
Temperatur 21°C
Fuktighet 17%
Tryck 1016 hPa
Sikt 10 km eller mer
Inga moln under 1 500 m eller inga cumulonimbus

METAR: ENOV 231420Z VRB04KT CAVOK 21/M05 Q1016 RMK WIND 2175FT 18009KT

Tid: 16:48 (14:48 UTC)


TAF: saknas

Aktuella väderrapporter och prognoser från 4000 flygplatser (METAR- och TAF-rapporter).

De tillgängliga stationerna syns som gula och röda prickar på kartan.

För musen över prickarna för att se namnen på stationerna.

Klicka sedan för att få väderrapporter och prognoser.

För att ändra kartan: Klicka på de gröna knapparna med ett svart kors på för att zooma in; den gröna knappen med ett streck på för att zooma ut; eller på de gröna pilarna för angränsande kartor.


METAR-TAF: